createdAt,value
2018-09-02T00:00:37.565Z,16.58
2018-09-02T00:03:06.833Z,16.09
2018-09-02T00:05:36.208Z,16.18
2018-09-02T00:08:07.440Z,16.31
2018-09-02T00:10:36.815Z,16.34
2018-09-02T00:13:06.077Z,16.23
2018-09-02T00:15:35.292Z,16.19
2018-09-02T00:18:04.479Z,16.37
2018-09-02T00:20:33.703Z,16.23
2018-09-02T00:23:04.642Z,15.99
2018-09-02T00:25:33.596Z,15.84
2018-09-02T00:28:02.569Z,16.05
2018-09-02T00:30:31.485Z,16.04
2018-09-02T00:33:00.467Z,16.02
2018-09-02T00:35:29.359Z,16.03
2018-09-02T00:37:58.286Z,16.11
2018-09-02T00:40:27.225Z,16.17
2018-09-02T00:42:56.118Z,15.90
2018-09-02T00:45:25.071Z,15.96
2018-09-02T00:47:55.087Z,15.94
2018-09-02T00:50:24.038Z,16.01
2018-09-02T00:52:52.977Z,15.69
2018-09-02T00:55:22.169Z,15.74
2018-09-02T00:57:51.154Z,15.82
2018-09-02T01:00:20.064Z,15.83
2018-09-02T01:02:49.041Z,15.80
2018-09-02T01:05:17.913Z,15.68
2018-09-02T01:07:46.868Z,15.60
2018-09-02T01:10:15.770Z,15.55
2018-09-02T01:12:44.684Z,15.50
2018-09-02T01:15:13.658Z,15.60
2018-09-02T01:17:42.664Z,15.53
2018-09-02T01:20:11.688Z,15.37
2018-09-02T01:22:40.604Z,15.18
2018-09-02T01:25:09.560Z,15.52
2018-09-02T01:27:38.495Z,15.58
2018-09-02T01:30:07.472Z,15.65
2018-09-02T01:32:36.398Z,15.68
2018-09-02T01:35:05.332Z,15.56
2018-09-02T01:37:34.224Z,15.25
2018-09-02T01:40:03.202Z,15.38
2018-09-02T01:42:32.096Z,15.55
2018-09-02T01:45:06.662Z,15.39
2018-09-02T01:47:36.518Z,15.37
2018-09-02T01:50:05.824Z,15.32
2018-09-02T01:52:34.732Z,15.17
2018-09-02T01:55:03.672Z,15.48
2018-09-02T01:57:32.632Z,15.55
2018-09-02T02:00:01.544Z,15.40
2018-09-02T02:02:30.468Z,15.13
2018-09-02T02:04:59.360Z,15.01
2018-09-02T02:07:28.248Z,15.26
2018-09-02T02:09:57.160Z,15.26
2018-09-02T02:12:26.066Z,15.31
2018-09-02T02:14:54.978Z,15.00
2018-09-02T02:17:23.996Z,15.33
2018-09-02T02:19:52.988Z,15.28
2018-09-02T02:22:21.886Z,15.29
2018-09-02T02:24:50.776Z,15.20
2018-09-02T02:27:19.766Z,15.38
2018-09-02T02:29:48.748Z,15.29
2018-09-02T02:32:17.685Z,15.14
2018-09-02T02:34:46.577Z,15.23
2018-09-02T02:37:15.680Z,15.11
2018-09-02T02:39:44.600Z,15.06
2018-09-02T02:42:13.532Z,14.83
2018-09-02T02:44:42.506Z,14.89
2018-09-02T02:47:11.422Z,15.02
2018-09-02T02:49:40.324Z,14.88
2018-09-02T02:52:09.360Z,14.79
2018-09-02T02:54:38.244Z,14.87
2018-09-02T02:57:07.264Z,15.04
2018-09-02T02:59:36.445Z,14.96
2018-09-02T03:02:05.573Z,15.13
2018-09-02T03:04:34.676Z,14.79
2018-09-02T03:07:03.620Z,14.60
2018-09-02T03:09:32.525Z,14.74
2018-09-02T03:12:01.443Z,15.00
2018-09-02T03:14:30.341Z,14.84
2018-09-02T03:16:59.236Z,14.76
2018-09-02T03:19:28.143Z,14.61
2018-09-02T03:21:57.073Z,14.85
2018-09-02T03:24:25.980Z,14.90
2018-09-02T03:26:54.947Z,14.64
2018-09-02T03:29:23.870Z,14.98
2018-09-02T03:31:52.739Z,15.03
2018-09-02T03:34:21.673Z,15.04
2018-09-02T03:36:50.610Z,14.92
2018-09-02T03:39:19.645Z,15.10
2018-09-02T03:41:48.589Z,14.89
2018-09-02T03:44:17.514Z,14.92
2018-09-02T03:46:46.407Z,14.96
2018-09-02T03:49:15.298Z,14.69
2018-09-02T03:51:44.218Z,14.70
2018-09-02T03:54:13.112Z,14.71
2018-09-02T03:56:44.090Z,14.38
2018-09-02T03:59:12.977Z,14.59
2018-09-02T04:01:41.915Z,14.43
2018-09-02T04:04:10.845Z,14.65
2018-09-02T04:06:39.746Z,14.72
2018-09-02T04:09:10.238Z,14.48
2018-09-02T04:11:39.319Z,14.83
2018-09-02T04:14:08.286Z,14.63
2018-09-02T04:16:37.179Z,14.66
2018-09-02T04:19:06.169Z,14.55
2018-09-02T04:21:35.167Z,14.71
2018-09-02T04:24:04.083Z,14.65
2018-09-02T04:26:33.085Z,14.44
2018-09-02T04:29:01.976Z,14.70
2018-09-02T04:31:30.896Z,14.32
2018-09-02T04:33:59.813Z,14.29
2018-09-02T04:36:28.711Z,14.53
2018-09-02T04:38:57.611Z,14.32
2018-09-02T04:41:26.599Z,14.51
2018-09-02T04:43:55.492Z,14.41
2018-09-02T04:46:24.445Z,14.34
2018-09-02T04:48:53.353Z,14.58
2018-09-02T04:51:22.309Z,14.38
2018-09-02T04:53:51.235Z,14.51
2018-09-02T04:56:20.148Z,14.61
2018-09-02T04:58:49.066Z,14.48
2018-09-02T05:01:18.005Z,14.33
2018-09-02T05:03:46.997Z,14.46
2018-09-02T05:06:15.914Z,14.45
2018-09-02T05:08:44.815Z,14.50
2018-09-02T05:11:13.733Z,14.37
2018-09-02T05:13:43.743Z,14.57
2018-09-02T05:16:12.655Z,14.48
2018-09-02T05:18:41.597Z,14.51
2018-09-02T05:21:10.493Z,14.45
2018-09-02T05:23:39.395Z,14.54
2018-09-02T05:26:08.379Z,14.48
2018-09-02T05:28:37.289Z,14.25
2018-09-02T05:31:06.331Z,14.36
2018-09-02T05:33:35.283Z,14.25
2018-09-02T05:36:04.235Z,14.29
2018-09-02T05:38:34.249Z,14.56
2018-09-02T05:41:03.135Z,14.55
2018-09-02T05:43:32.055Z,14.68
2018-09-02T05:46:00.995Z,14.41
2018-09-02T05:48:29.940Z,14.53
2018-09-02T05:50:58.906Z,14.67
2018-09-02T05:53:27.858Z,14.48
2018-09-02T05:55:56.781Z,14.65
2018-09-02T05:58:25.702Z,14.75
2018-09-02T06:00:54.611Z,14.79
2018-09-02T06:03:23.641Z,14.89
2018-09-02T06:05:52.950Z,14.62
2018-09-02T06:08:22.110Z,14.89
2018-09-02T06:10:51.353Z,14.77
2018-09-02T06:13:20.707Z,14.88
2018-09-02T06:15:50.373Z,14.80
2018-09-02T06:18:19.617Z,14.80
2018-09-02T06:20:48.905Z,14.91
2018-09-02T06:23:18.148Z,14.99
2018-09-02T06:25:47.358Z,15.01
2018-09-02T06:28:16.575Z,14.93
2018-09-02T06:30:45.826Z,14.96
2018-09-02T06:33:15.110Z,15.13
2018-09-02T06:35:44.259Z,15.02
2018-09-02T06:38:18.829Z,15.28
2018-09-02T06:40:47.781Z,15.35
2018-09-02T06:43:16.711Z,15.47
2018-09-02T06:45:45.678Z,15.53
2018-09-02T06:48:17.711Z,15.62
2018-09-02T06:50:47.133Z,15.67
2018-09-02T06:53:16.577Z,15.56
2018-09-02T06:55:45.771Z,15.66
2018-09-02T06:58:14.839Z,15.60
2018-09-02T07:00:43.817Z,15.72
2018-09-02T07:03:12.728Z,15.83
2018-09-02T07:05:42.530Z,15.94
2018-09-02T07:08:12.543Z,16.26
2018-09-02T07:10:42.544Z,16.58
2018-09-02T07:13:11.523Z,16.87
2018-09-02T07:15:40.467Z,17.27
2018-09-02T07:18:09.606Z,17.42
2018-09-02T07:20:38.762Z,17.82
2018-09-02T07:23:07.667Z,17.99
2018-09-02T07:25:36.604Z,18.20
2018-09-02T07:28:05.544Z,18.15
2018-09-02T07:30:34.498Z,17.77
2018-09-02T07:33:03.630Z,18.05
2018-09-02T07:35:32.656Z,17.97
2018-09-02T07:38:01.616Z,17.91
2018-09-02T07:40:30.672Z,17.98
2018-09-02T07:42:59.576Z,18.11
2018-09-02T07:45:28.519Z,18.18
2018-09-02T07:47:57.489Z,18.28
2018-09-02T07:50:26.344Z,18.34
2018-09-02T07:52:55.324Z,18.39
2018-09-02T07:55:24.250Z,18.28
2018-09-02T07:57:53.292Z,18.47
2018-09-02T08:00:22.216Z,18.09
2018-09-02T08:02:51.387Z,17.96
2018-09-02T08:05:20.405Z,18.15
2018-09-02T08:07:49.498Z,18.39
2018-09-02T08:10:18.414Z,18.52
2018-09-02T08:12:47.622Z,18.77
2018-09-02T08:15:16.343Z,18.84
2018-09-02T08:17:45.316Z,18.83
2018-09-02T08:20:14.271Z,18.68
2018-09-02T08:22:43.310Z,18.90
2018-09-02T08:25:12.172Z,18.95
2018-09-02T08:27:41.178Z,19.01
2018-09-02T08:30:10.120Z,18.67
2018-09-02T08:32:39.024Z,18.60
2018-09-02T08:35:08.062Z,18.64
2018-09-02T08:37:36.996Z,18.71
2018-09-02T08:40:06.188Z,18.48
2018-09-02T08:42:35.196Z,18.64
2018-09-02T08:45:04.108Z,18.71
2018-09-02T08:47:33.018Z,18.51
2018-09-02T08:50:01.950Z,18.60
2018-09-02T08:52:30.842Z,18.76
2018-09-02T08:55:00.195Z,18.84
2018-09-02T08:57:29.170Z,18.91
2018-09-02T08:59:59.211Z,18.92
2018-09-02T09:02:28.472Z,18.82
2018-09-02T09:04:57.400Z,18.80
2018-09-02T09:07:27.413Z,18.56
2018-09-02T09:09:56.358Z,18.50
2018-09-02T09:12:25.274Z,18.42
2018-09-02T09:14:54.472Z,18.47
2018-09-02T09:17:23.416Z,18.49
2018-09-02T09:19:52.318Z,18.50
2018-09-02T09:22:21.242Z,18.57
2018-09-02T09:24:50.327Z,18.73
2018-09-02T09:27:19.250Z,18.84
2018-09-02T09:29:48.258Z,18.89
2018-09-02T09:32:23.786Z,18.90
2018-09-02T09:34:52.756Z,18.83
2018-09-02T09:37:21.741Z,18.88
2018-09-02T09:39:50.676Z,18.80
2018-09-02T09:42:19.572Z,18.75
2018-09-02T09:44:48.526Z,18.88
2018-09-02T09:47:17.499Z,18.93
2018-09-02T09:49:46.461Z,18.98
2018-09-02T09:52:15.442Z,19.11
2018-09-02T09:54:44.917Z,19.13
2018-09-02T09:57:13.847Z,19.18
2018-09-02T09:59:42.890Z,19.20
2018-09-02T10:02:11.874Z,19.11
2018-09-02T10:04:40.812Z,19.19
2018-09-02T10:07:09.742Z,19.22
2018-09-02T10:09:38.785Z,19.34
2018-09-02T10:12:07.748Z,19.39
2018-09-02T10:14:36.744Z,19.44
2018-09-02T10:17:05.807Z,19.50
2018-09-02T10:19:34.643Z,19.52
2018-09-02T10:22:03.556Z,19.39
2018-09-02T10:24:32.568Z,19.26
2018-09-02T10:27:01.449Z,19.41
2018-09-02T10:29:30.388Z,19.57
2018-09-02T10:31:59.273Z,19.70
2018-09-02T10:34:28.208Z,19.66
2018-09-02T10:36:57.120Z,19.67
2018-09-02T10:39:26.038Z,19.62
2018-09-02T10:41:55.032Z,19.64
2018-09-02T10:44:24.030Z,19.65
2018-09-02T10:46:53.016Z,19.78
2018-09-02T10:49:21.980Z,19.64
2018-09-02T10:51:50.910Z,19.68
2018-09-02T10:54:19.830Z,19.59
2018-09-02T10:56:48.728Z,19.65
2018-09-02T10:59:17.668Z,19.72
2018-09-02T11:01:46.580Z,19.79
2018-09-02T11:04:15.573Z,19.77
2018-09-02T11:06:44.454Z,19.84
2018-09-02T11:09:13.394Z,19.84
2018-09-02T11:11:42.369Z,19.87
2018-09-02T11:14:11.280Z,19.93
2018-09-02T11:16:40.250Z,19.99
2018-09-02T11:19:09.446Z,20.02
2018-09-02T11:21:38.378Z,20.11
2018-09-02T11:24:07.511Z,20.15
2018-09-02T11:26:36.412Z,20.08
2018-09-02T11:29:05.496Z,20.02
2018-09-02T11:31:34.407Z,19.97
2018-09-02T11:34:03.396Z,20.07
2018-09-02T11:36:32.328Z,20.01
2018-09-02T11:39:01.307Z,20.00
2018-09-02T11:41:30.248Z,20.08
2018-09-02T11:43:59.240Z,20.12
2018-09-02T11:46:28.170Z,20.08
2018-09-02T11:48:57.125Z,20.08
2018-09-02T11:51:26.087Z,20.47
2018-09-02T11:53:55.061Z,20.47
2018-09-02T11:56:23.946Z,20.32
2018-09-02T11:58:52.840Z,20.41
2018-09-02T12:01:21.800Z,20.30
2018-09-02T12:03:51.015Z,20.55
2018-09-02T12:06:19.940Z,20.56
2018-09-02T12:08:48.859Z,20.49
2018-09-02T12:11:17.725Z,20.57
2018-09-02T12:13:46.659Z,20.60
2018-09-02T12:16:15.587Z,20.66
2018-09-02T12:18:44.543Z,20.68
2018-09-02T12:21:13.522Z,20.73
2018-09-02T12:23:42.494Z,20.79
2018-09-02T12:26:11.582Z,20.98
2018-09-02T12:28:41.696Z,21.22
2018-09-02T12:31:10.648Z,21.14
2018-09-02T12:33:39.617Z,20.97
2018-09-02T12:36:09.175Z,21.08
2018-09-02T12:38:38.218Z,21.02
2018-09-02T12:41:07.247Z,20.92
2018-09-02T12:43:36.266Z,20.95
2018-09-02T12:46:05.212Z,20.93
2018-09-02T12:48:34.170Z,21.08
2018-09-02T12:51:03.116Z,21.19
2018-09-02T12:53:32.104Z,21.18
2018-09-02T12:56:01.057Z,21.27
2018-09-02T12:58:29.957Z,21.40
2018-09-02T13:00:58.917Z,21.47
2018-09-02T13:03:27.844Z,21.22
2018-09-02T13:05:56.838Z,21.22
2018-09-02T13:08:25.875Z,21.04
2018-09-02T13:10:54.859Z,21.09
2018-09-02T13:13:23.841Z,21.18
2018-09-02T13:15:52.818Z,21.19
2018-09-02T13:18:21.804Z,21.32
2018-09-02T13:20:50.743Z,21.22
2018-09-02T13:23:19.682Z,21.25
2018-09-02T13:25:48.655Z,21.24
2018-09-02T13:28:17.572Z,21.28
2018-09-02T13:30:47.526Z,21.23
2018-09-02T13:33:16.421Z,21.22
2018-09-02T13:35:45.387Z,21.04
2018-09-02T13:38:14.387Z,21.08
2018-09-02T13:40:43.614Z,21.10
2018-09-02T13:43:12.637Z,21.11
2018-09-02T13:45:45.231Z,21.11
2018-09-02T13:48:14.218Z,21.23
2018-09-02T13:50:43.259Z,21.23
2018-09-02T13:53:12.228Z,21.49
2018-09-02T13:55:41.157Z,21.48
2018-09-02T13:58:10.105Z,21.53
2018-09-02T14:00:39.021Z,21.52
2018-09-02T14:03:08.031Z,21.59
2018-09-02T14:05:36.915Z,21.63
2018-09-02T14:08:05.940Z,21.55
2018-09-02T14:10:35.580Z,21.43
2018-09-02T14:13:04.559Z,21.53
2018-09-02T14:15:33.819Z,21.53
2018-09-02T14:18:02.842Z,21.55
2018-09-02T14:20:31.733Z,21.41
2018-09-02T14:23:00.769Z,21.66
2018-09-02T14:25:29.660Z,21.68
2018-09-02T14:27:58.593Z,21.81
2018-09-02T14:30:27.527Z,21.85
2018-09-02T14:32:56.526Z,21.70
2018-09-02T14:35:25.614Z,21.55
2018-09-02T14:37:54.637Z,21.49
2018-09-02T14:40:23.655Z,21.59
2018-09-02T14:42:52.669Z,21.61
2018-09-02T14:45:21.635Z,21.66
2018-09-02T14:47:50.572Z,21.64
2018-09-02T14:50:19.873Z,21.67
2018-09-02T14:52:48.811Z,21.66
2018-09-02T14:55:17.737Z,21.58
2018-09-02T14:57:46.673Z,21.62
2018-09-02T15:00:15.595Z,21.57
2018-09-02T15:02:44.531Z,21.80
2018-09-02T15:05:14.550Z,21.89
2018-09-02T15:07:43.523Z,21.79
2018-09-02T15:10:12.440Z,21.82
2018-09-02T15:12:41.349Z,21.84
2018-09-02T15:15:10.446Z,21.81
2018-09-02T15:17:39.407Z,21.80
2018-09-02T15:20:08.387Z,21.79
2018-09-02T15:22:37.335Z,21.71
2018-09-02T15:25:06.337Z,21.79
2018-09-02T15:27:35.413Z,21.86
2018-09-02T15:30:04.653Z,21.83
2018-09-02T15:32:33.557Z,21.83
2018-09-02T15:35:02.659Z,21.78
2018-09-02T15:37:31.547Z,21.74
2018-09-02T15:40:00.516Z,21.71
2018-09-02T15:42:29.487Z,21.90
2018-09-02T15:44:58.570Z,21.80
2018-09-02T15:47:27.445Z,21.80
2018-09-02T15:49:56.355Z,21.73
2018-09-02T15:52:25.398Z,21.86
2018-09-02T15:54:54.239Z,21.84
2018-09-02T15:57:23.323Z,21.88
2018-09-02T15:59:52.339Z,21.88
2018-09-02T16:02:21.219Z,21.81
2018-09-02T16:04:50.183Z,21.85
2018-09-02T16:07:19.248Z,21.86
2018-09-02T16:09:49.211Z,21.94
2018-09-02T16:12:18.208Z,21.91
2018-09-02T16:14:47.231Z,21.99
2018-09-02T16:17:16.174Z,21.91
2018-09-02T16:19:45.079Z,21.91
2018-09-02T16:22:14.143Z,22.01
2018-09-02T16:24:43.067Z,21.83
2018-09-02T16:27:12.124Z,21.89
2018-09-02T16:29:41.046Z,21.83
2018-09-02T16:32:10.168Z,21.78
2018-09-02T16:34:39.036Z,21.71
2018-09-02T16:37:08.951Z,21.71
2018-09-02T16:39:38.309Z,21.70
2018-09-02T16:42:07.225Z,21.62
2018-09-02T16:44:36.133Z,21.58
2018-09-02T16:47:05.317Z,21.63
2018-09-02T16:49:34.231Z,21.63
2018-09-02T16:52:03.252Z,21.65
2018-09-02T16:54:32.261Z,21.67
2018-09-02T16:57:01.225Z,21.74
2018-09-02T16:59:30.323Z,21.69
2018-09-02T17:01:59.210Z,21.74
2018-09-02T17:04:30.648Z,21.68
2018-09-02T17:06:59.537Z,21.61
2018-09-02T17:09:28.428Z,21.56
2018-09-02T17:11:57.421Z,21.54
2018-09-02T17:14:26.330Z,21.47
2018-09-02T17:16:55.283Z,21.42
2018-09-02T17:19:26.550Z,21.36
2018-09-02T17:21:55.455Z,21.38
2018-09-02T17:24:24.390Z,21.36
2018-09-02T17:26:53.295Z,21.29
2018-09-02T17:29:22.231Z,21.28
2018-09-02T17:31:51.131Z,21.22
2018-09-02T17:34:20.095Z,21.17
2018-09-02T17:36:48.972Z,21.19
2018-09-02T17:39:17.847Z,21.15
2018-09-02T17:41:46.901Z,21.09
2018-09-02T17:44:15.787Z,21.10
2018-09-02T17:46:44.733Z,21.08
2018-09-02T17:49:13.666Z,21.03
2018-09-02T17:51:42.568Z,20.96
2018-09-02T17:54:11.827Z,20.93
2018-09-02T17:56:40.753Z,20.93
2018-09-02T17:59:09.741Z,20.86
2018-09-02T18:01:38.717Z,20.84
2018-09-02T18:04:07.647Z,20.82
2018-09-02T18:06:36.643Z,20.76
2018-09-02T18:09:08.649Z,20.77
2018-09-02T18:11:40.129Z,20.71
2018-09-02T18:14:15.319Z,20.64
2018-09-02T18:16:44.321Z,20.62
2018-09-02T18:19:13.321Z,20.57
2018-09-02T18:21:42.354Z,20.52
2018-09-02T18:24:24.801Z,20.50
2018-09-02T18:26:55.123Z,20.45
2018-09-02T18:29:24.088Z,20.42
2018-09-02T18:31:52.991Z,20.38
2018-09-02T18:34:42.794Z,20.34
2018-09-02T18:37:12.895Z,20.21
2018-09-02T18:39:45.750Z,20.21
2018-09-02T18:42:14.569Z,20.15
2018-09-02T18:44:43.535Z,20.12
2018-09-02T18:47:12.467Z,20.03
2018-09-02T18:49:56.077Z,20.03
2018-09-02T18:52:40.593Z,19.97
2018-09-02T18:55:10.337Z,19.94
2018-09-02T18:57:39.368Z,19.94
2018-09-02T19:00:15.757Z,19.86
2018-09-02T19:02:44.669Z,19.90
2018-09-02T19:05:13.871Z,19.83
2018-09-02T19:07:43.103Z,19.71
2018-09-02T19:10:18.077Z,19.67
2018-09-02T19:12:47.256Z,19.64
2018-09-02T19:15:17.372Z,19.59
2018-09-02T19:17:46.349Z,19.57
2018-09-02T19:20:15.346Z,19.55
2018-09-02T19:22:45.240Z,19.50
2018-09-02T19:25:28.590Z,19.52
2018-09-02T19:28:02.251Z,19.53
2018-09-02T19:30:31.680Z,19.44
2018-09-02T19:33:00.928Z,19.44
2018-09-02T19:35:30.042Z,19.42
2018-09-02T19:37:59.310Z,19.35
2018-09-02T19:40:28.882Z,19.27
2018-09-02T19:42:57.883Z,19.27
2018-09-02T19:45:27.143Z,19.24
2018-09-02T19:47:56.290Z,19.24
2018-09-02T19:50:25.257Z,19.19
2018-09-02T19:52:54.490Z,19.10
2018-09-02T19:55:23.470Z,19.14
2018-09-02T19:57:52.531Z,19.13
2018-09-02T20:00:21.456Z,19.13
2018-09-02T20:02:50.417Z,19.04
2018-09-02T20:05:19.504Z,19.10
2018-09-02T20:07:48.588Z,19.01
2018-09-02T20:10:17.571Z,18.95
2018-09-02T20:12:46.571Z,18.93
2018-09-02T20:15:15.487Z,18.90
2018-09-02T20:17:58.421Z,18.83
2018-09-02T20:34:15.137Z,18.78
2018-09-02T20:36:44.553Z,18.73
2018-09-02T20:39:13.893Z,18.74
2018-09-02T20:41:43.361Z,18.66
2018-09-02T20:44:19.583Z,18.66
2018-09-02T20:47:00.442Z,18.62
2018-09-02T20:49:35.979Z,18.68
2018-09-02T20:54:56.628Z,18.59
2018-09-02T20:57:32.868Z,18.61
2018-09-02T21:00:04.371Z,18.57
2018-09-02T21:02:34.592Z,18.58
2018-09-02T21:05:04.132Z,18.43
2018-09-02T21:07:34.218Z,18.41
2018-09-02T21:10:03.934Z,18.38
2018-09-02T21:12:33.482Z,18.46
2018-09-02T21:15:08.804Z,18.54
2018-09-02T21:17:39.092Z,18.51
2018-09-02T21:20:09.816Z,18.46
2018-09-02T21:22:39.742Z,18.40
2018-09-02T21:25:09.727Z,18.37
2018-09-02T21:27:42.949Z,18.40
2018-09-02T21:30:13.307Z,18.30
2018-09-02T21:32:44.424Z,18.27
2018-09-02T21:35:15.146Z,18.29
2018-09-02T21:37:48.190Z,18.28
2018-09-02T21:40:20.592Z,18.29
2018-09-02T21:42:55.830Z,18.27
2018-09-02T21:45:25.730Z,18.32
2018-09-02T21:47:56.383Z,18.28
2018-09-02T21:50:26.094Z,18.25
2018-09-02T21:52:55.828Z,18.32
2018-09-02T21:55:26.377Z,18.20
2018-09-02T21:57:55.830Z,18.05
2018-09-02T22:00:25.454Z,17.94
2018-09-02T22:04:25.100Z,17.97
2018-09-02T22:06:54.512Z,18.00
2018-09-02T22:09:24.853Z,17.95
2018-09-02T22:11:55.972Z,17.97
2018-09-02T22:14:26.658Z,17.90
2018-09-02T22:16:56.168Z,17.87
2018-09-02T22:19:28.792Z,17.76
2018-09-02T22:21:59.160Z,17.67
2018-09-02T22:24:30.836Z,17.58
2018-09-02T22:27:00.634Z,17.53
2018-09-02T22:29:30.507Z,17.57
2018-09-02T22:32:14.416Z,17.56
2018-09-02T22:37:43.533Z,17.64
2018-09-02T22:40:16.763Z,17.64
2018-09-02T22:42:45.667Z,17.67
2018-09-02T22:45:14.770Z,17.67
2018-09-02T22:47:44.495Z,17.62
2018-09-02T22:50:24.937Z,17.63
2018-09-02T22:52:54.207Z,17.74
2018-09-02T22:55:23.709Z,17.75
2018-09-02T22:57:53.589Z,17.67
2018-09-02T23:00:22.869Z,17.61
2018-09-02T23:02:52.351Z,17.48
2018-09-02T23:05:23.243Z,17.51
2018-09-02T23:07:52.614Z,17.56
2018-09-02T23:10:21.566Z,17.57
2018-09-02T23:12:50.594Z,17.50
2018-09-02T23:15:19.499Z,17.38
2018-09-02T23:17:48.749Z,17.32
2018-09-02T23:20:17.736Z,17.38
2018-09-02T23:22:51.082Z,17.29
2018-09-02T23:25:20.126Z,17.33
2018-09-02T23:27:52.268Z,17.27
2018-09-02T23:30:25.944Z,17.28
2018-09-02T23:32:54.868Z,17.07
2018-09-02T23:35:23.766Z,17.15
2018-09-02T23:37:52.759Z,17.11
2018-09-02T23:40:21.703Z,17.03
2018-09-02T23:42:50.602Z,17.09
2018-09-02T23:45:19.558Z,17.14
2018-09-02T23:47:53.598Z,17.10
2018-09-02T23:50:22.693Z,17.04
2018-09-02T23:52:51.608Z,17.08
2018-09-02T23:55:20.550Z,17.04
2018-09-02T23:57:49.516Z,17.14
